createdAt,value
2022-08-26T00:01:52.906Z,8.50
2022-08-26T00:04:21.948Z,9.97
2022-08-26T00:06:48.837Z,11.13
2022-08-26T00:09:16.070Z,10.47
2022-08-26T00:11:44.801Z,10.50
2022-08-26T00:14:13.959Z,8.60
2022-08-26T00:16:47.577Z,9.23
2022-08-26T00:19:20.324Z,8.97
2022-08-26T00:21:48.638Z,10.87
2022-08-26T00:24:15.920Z,9.90
2022-08-26T00:26:42.968Z,7.90
2022-08-26T00:29:09.887Z,12.57
2022-08-26T00:31:37.635Z,10.97
2022-08-26T00:34:05.807Z,9.77
2022-08-26T00:36:32.690Z,15.63
2022-08-26T00:38:59.528Z,8.87
2022-08-26T00:41:26.909Z,9.73
2022-08-26T00:43:54.395Z,7.63
2022-08-26T00:46:28.827Z,8.00
2022-08-26T00:49:03.908Z,10.40
2022-08-26T00:51:49.005Z,9.60
2022-08-26T00:54:16.955Z,9.23
2022-08-26T00:56:55.436Z,8.43
2022-08-26T00:59:23.896Z,7.50
2022-08-26T01:01:51.658Z,10.07
2022-08-26T01:04:21.315Z,8.80
2022-08-26T01:06:51.378Z,10.67
2022-08-26T01:09:19.963Z,9.70
2022-08-26T01:11:49.107Z,8.83
2022-08-26T01:14:18.195Z,9.50
2022-08-26T01:16:48.361Z,8.10
2022-08-26T01:19:46.891Z,11.37
2022-08-26T01:22:32.896Z,10.73
2022-08-26T01:25:03.614Z,9.37
2022-08-26T01:27:32.952Z,8.83
2022-08-26T01:30:02.502Z,7.87
2022-08-26T01:32:31.783Z,11.27
2022-08-26T01:34:59.055Z,7.50
2022-08-26T01:37:32.563Z,6.37
2022-08-26T01:39:59.464Z,8.23
2022-08-26T01:42:27.480Z,9.17
2022-08-26T01:48:38.756Z,8.87
2022-08-26T01:51:09.664Z,8.23
2022-08-26T01:53:37.764Z,6.90
2022-08-26T01:56:10.636Z,6.80
2022-08-26T01:58:45.292Z,6.80
2022-08-26T02:01:12.902Z,8.80
2022-08-26T02:03:55.852Z,7.53
2022-08-26T02:06:23.679Z,9.57
2022-08-26T02:08:55.420Z,8.43
2022-08-26T02:11:23.192Z,11.63
2022-08-26T02:13:55.510Z,9.10
2022-08-26T02:16:26.413Z,11.77
2022-08-26T02:18:55.233Z,12.77
2022-08-26T02:21:22.915Z,10.10
2022-08-26T02:23:52.433Z,12.20
2022-08-26T02:26:27.131Z,9.03
2022-08-26T02:29:03.923Z,7.73
2022-08-26T02:31:31.348Z,12.30
2022-08-26T02:34:16.705Z,7.70
2022-08-26T02:36:43.704Z,9.90
2022-08-26T02:39:10.632Z,14.57
2022-08-26T02:41:44.934Z,10.33
2022-08-26T02:44:13.283Z,10.23
2022-08-26T02:46:41.497Z,15.10
2022-08-26T02:49:14.432Z,13.87
2022-08-26T02:51:41.230Z,15.17
2022-08-26T02:54:10.141Z,12.60
2022-08-26T02:56:37.841Z,15.43
2022-08-26T02:59:04.892Z,64.60
2022-08-26T03:01:34.279Z,10.87
2022-08-26T03:04:04.855Z,13.60
2022-08-26T03:06:32.818Z,12.10
2022-08-26T03:08:59.780Z,12.53
2022-08-26T03:11:32.247Z,13.50
2022-08-26T03:14:01.867Z,12.97
2022-08-26T03:16:36.309Z,11.80
2022-08-26T03:19:06.680Z,11.80
2022-08-26T03:21:35.460Z,15.07
2022-08-26T03:24:03.376Z,22.03
2022-08-26T03:26:30.988Z,22.63
2022-08-26T03:29:16.705Z,18.27
2022-08-26T03:31:43.951Z,31.30
2022-08-26T03:34:14.408Z,11.17
2022-08-26T03:36:42.105Z,40.93
2022-08-26T03:39:10.877Z,18.23
2022-08-26T03:41:38.680Z,22.03
2022-08-26T03:44:08.792Z,18.27
2022-08-26T03:46:36.902Z,84.10
2022-08-26T03:49:06.018Z,37.63
2022-08-26T03:51:34.740Z,21.57
2022-08-26T03:54:06.551Z,43.40
2022-08-26T03:56:36.572Z,22.87
2022-08-26T03:59:04.952Z,56.60
2022-08-26T04:01:35.336Z,21.33
2022-08-26T04:04:03.258Z,21.93
2022-08-26T04:06:35.942Z,34.03
2022-08-26T04:09:07.923Z,126.00
2022-08-26T04:11:37.743Z,24.70
2022-08-26T04:14:08.271Z,28.97
2022-08-26T04:16:35.512Z,40.00
2022-08-26T04:19:02.522Z,176.27
2022-08-26T04:21:29.461Z,133.40
2022-08-26T04:23:56.601Z,21.43
2022-08-26T04:26:26.049Z,60.77
2022-08-26T04:28:54.738Z,69.23
2022-08-26T04:31:22.540Z,36.37
2022-08-26T04:33:50.792Z,37.87
2022-08-26T04:36:19.968Z,30.50
2022-08-26T04:38:47.977Z,49.80
2022-08-26T04:41:16.892Z,27.27
2022-08-26T04:43:45.454Z,100.33
2022-08-26T04:46:13.967Z,160.53
2022-08-26T04:48:41.416Z,14.83
2022-08-26T04:51:09.883Z,20.73
2022-08-26T04:53:37.762Z,60.33
2022-08-26T04:56:05.476Z,28.37
2022-08-26T04:58:32.839Z,68.23
2022-08-26T05:01:00.076Z,19.87
2022-08-26T05:03:27.491Z,22.57
2022-08-26T05:05:58.610Z,33.17
2022-08-26T05:08:26.183Z,21.20
2022-08-26T05:10:56.282Z,15.37
2022-08-26T05:13:26.841Z,27.83
2022-08-26T05:15:54.724Z,20.47
2022-08-26T05:18:27.533Z,48.60
2022-08-26T05:20:55.030Z,43.73
2022-08-26T05:23:23.713Z,108.47
2022-08-26T05:25:57.051Z,106.23
2022-08-26T05:28:26.854Z,43.20
2022-08-26T05:30:55.630Z,65.40
2022-08-26T05:33:23.158Z,20.70
2022-08-26T05:35:50.220Z,12.87
2022-08-26T05:38:20.032Z,84.13
2022-08-26T05:40:52.541Z,28.67
2022-08-26T05:43:21.987Z,22.73
2022-08-26T05:45:50.432Z,20.40
2022-08-26T05:48:22.814Z,31.20
2022-08-26T05:50:53.292Z,94.90
2022-08-26T05:53:22.046Z,81.10
2022-08-26T05:55:53.247Z,42.53
2022-08-26T05:58:21.907Z,65.97
2022-08-26T06:01:20.261Z,57.03
2022-08-26T06:03:54.728Z,88.73
2022-08-26T06:06:29.929Z,60.00
2022-08-26T06:08:59.411Z,25.20
2022-08-26T06:11:27.754Z,19.73
2022-08-26T06:14:01.223Z,17.10
2022-08-26T06:16:31.186Z,33.00
2022-08-26T06:18:58.027Z,30.73
2022-08-26T06:21:33.505Z,60.93
2022-08-26T06:24:27.198Z,48.30
2022-08-26T06:27:00.218Z,49.00
2022-08-26T06:29:27.826Z,17.10
2022-08-26T06:31:56.138Z,21.97
2022-08-26T06:34:23.760Z,32.63
2022-08-26T06:36:58.623Z,18.23
2022-08-26T06:39:25.611Z,34.30
2022-08-26T06:41:53.000Z,17.63
2022-08-26T06:44:20.934Z,18.30
2022-08-26T06:46:50.664Z,16.10
2022-08-26T06:49:18.416Z,19.07
2022-08-26T06:51:55.177Z,15.03
2022-08-26T06:54:22.347Z,13.77
2022-08-26T06:56:50.398Z,16.43
2022-08-26T06:59:17.956Z,17.90
2022-08-26T07:01:45.201Z,24.73
2022-08-26T07:04:15.675Z,19.57
2022-08-26T07:06:52.358Z,18.23
2022-08-26T07:09:24.665Z,17.73
2022-08-26T07:11:52.998Z,18.20
2022-08-26T07:14:21.350Z,18.87
2022-08-26T07:16:49.437Z,18.03
2022-08-26T07:19:17.719Z,17.53
2022-08-26T07:21:56.677Z,18.43
2022-08-26T07:24:23.609Z,17.87
2022-08-26T07:26:59.409Z,19.03
2022-08-26T07:29:26.184Z,17.20
2022-08-26T07:31:53.792Z,17.10
2022-08-26T07:34:24.104Z,16.03
2022-08-26T07:36:51.603Z,17.60
2022-08-26T07:39:19.190Z,18.93
2022-08-26T07:41:47.393Z,17.70
2022-08-26T07:44:15.069Z,18.57
2022-08-26T07:46:44.006Z,17.13
2022-08-26T07:49:12.315Z,16.27
2022-08-26T07:51:40.263Z,18.07
2022-08-26T07:54:07.443Z,17.13
2022-08-26T07:56:35.278Z,15.67
2022-08-26T07:59:13.563Z,17.43
2022-08-26T08:01:44.988Z,16.77
2022-08-26T08:04:17.334Z,17.87
2022-08-26T08:06:45.326Z,17.60
2022-08-26T08:09:13.942Z,17.03
2022-08-26T08:11:43.458Z,16.90
2022-08-26T08:14:12.191Z,19.80
2022-08-26T08:16:46.134Z,18.83
2022-08-26T08:19:14.839Z,18.47
2022-08-26T08:21:43.028Z,17.63
2022-08-26T08:24:11.321Z,16.53
2022-08-26T08:26:38.981Z,18.70
2022-08-26T08:29:07.975Z,16.90
2022-08-26T08:34:23.133Z,21.07
2022-08-26T08:36:50.544Z,22.97
2022-08-26T08:39:20.680Z,19.67
2022-08-26T08:41:48.826Z,19.40
2022-08-26T08:44:19.967Z,19.17
2022-08-26T08:46:56.078Z,20.87
2022-08-26T08:49:25.967Z,20.90
2022-08-26T08:52:06.949Z,19.97
2022-08-26T08:54:33.965Z,20.40
2022-08-26T08:57:10.311Z,18.30
2022-08-26T08:59:47.600Z,19.83
2022-08-26T09:02:20.367Z,21.07
2022-08-26T09:05:02.802Z,20.20
2022-08-26T09:07:43.332Z,18.77
2022-08-26T09:10:27.416Z,18.67
2022-08-26T09:12:54.602Z,18.70
2022-08-26T09:15:44.523Z,16.13
2022-08-26T09:18:20.844Z,16.27
2022-08-26T09:20:53.556Z,18.37
2022-08-26T09:23:20.610Z,16.30
2022-08-26T09:28:28.935Z,16.30
2022-08-26T09:31:23.597Z,14.40
2022-08-26T09:34:17.256Z,11.17
2022-08-26T09:36:52.031Z,10.80
2022-08-26T09:39:27.572Z,9.03
2022-08-26T09:42:25.558Z,8.97
2022-08-26T09:45:03.605Z,9.83
2022-08-26T09:47:33.939Z,9.80
2022-08-26T09:50:28.972Z,11.30
2022-08-26T09:53:17.520Z,9.03
2022-08-26T09:55:51.294Z,8.37
2022-08-26T09:58:38.096Z,8.50
2022-08-26T10:01:14.956Z,11.60
2022-08-26T10:03:44.562Z,8.87
2022-08-26T10:06:16.738Z,11.33
2022-08-26T10:08:47.797Z,11.07
2022-08-26T10:11:47.626Z,9.53
2022-08-26T10:14:22.156Z,9.93
2022-08-26T10:17:06.986Z,10.17
2022-08-26T10:19:57.019Z,10.77
2022-08-26T10:22:42.357Z,10.20
2022-08-26T10:25:16.040Z,10.90
2022-08-26T10:27:54.933Z,10.07
2022-08-26T10:30:27.706Z,10.47
2022-08-26T10:33:18.537Z,10.77
2022-08-26T10:35:52.542Z,10.33
2022-08-26T10:38:27.462Z,7.90
2022-08-26T10:41:03.105Z,9.20
2022-08-26T10:44:02.189Z,9.60
2022-08-26T10:46:51.017Z,13.00
2022-08-26T10:49:18.846Z,9.83
2022-08-26T10:52:15.201Z,9.47
2022-08-26T10:55:01.387Z,9.20
2022-08-26T10:57:57.977Z,10.67
2022-08-26T11:01:10.411Z,9.03
2022-08-26T11:03:49.588Z,7.57
2022-08-26T11:06:19.944Z,7.33
2022-08-26T11:08:49.196Z,10.03
2022-08-26T11:11:41.000Z,7.77
2022-08-26T11:14:29.349Z,5.63
2022-08-26T11:17:01.094Z,7.77
2022-08-26T11:19:59.366Z,7.30
2022-08-26T11:22:32.938Z,11.27
2022-08-26T11:25:06.779Z,7.80
2022-08-26T11:27:36.156Z,6.60
2022-08-26T11:30:10.715Z,7.47
2022-08-26T11:32:38.129Z,8.10
2022-08-26T11:35:11.316Z,6.93
2022-08-26T11:37:41.336Z,10.00
2022-08-26T11:40:13.033Z,7.60
2022-08-26T11:42:42.685Z,8.10
2022-08-26T11:45:17.903Z,7.77
2022-08-26T11:47:46.957Z,7.60
2022-08-26T11:50:23.286Z,10.33
2022-08-26T11:53:04.311Z,5.40
2022-08-26T11:55:36.659Z,8.25
2022-08-26T11:58:05.806Z,7.70
2022-08-26T12:00:45.706Z,6.43
2022-08-26T12:03:23.065Z,8.65
2022-08-26T12:05:52.212Z,7.53
2022-08-26T12:08:25.975Z,8.93
2022-08-26T12:11:13.631Z,7.40
2022-08-26T12:13:42.201Z,6.93
2022-08-26T12:16:09.628Z,7.25
2022-08-26T12:18:39.077Z,7.67
2022-08-26T12:21:16.218Z,6.57
2022-08-26T12:23:47.642Z,5.03
2022-08-26T12:26:35.785Z,4.68
2022-08-26T12:29:20.389Z,6.47
2022-08-26T12:32:13.234Z,6.68
2022-08-26T12:34:45.187Z,5.25
2022-08-26T12:37:14.087Z,6.05
2022-08-26T12:39:44.408Z,4.28
2022-08-26T12:42:16.669Z,4.20
2022-08-26T12:44:54.193Z,5.00
2022-08-26T12:47:32.718Z,4.88
2022-08-26T12:50:26.312Z,7.15
2022-08-26T12:53:04.444Z,5.00
2022-08-26T12:55:40.434Z,6.27
2022-08-26T12:58:16.425Z,7.50
2022-08-26T13:00:46.074Z,3.90
2022-08-26T13:03:34.216Z,6.43
2022-08-26T13:06:15.897Z,9.33
2022-08-26T13:08:54.644Z,3.80
2022-08-26T13:11:26.798Z,6.47
2022-08-26T13:14:11.857Z,5.40
2022-08-26T13:16:49.214Z,6.37
2022-08-26T13:19:19.181Z,5.00
2022-08-26T13:21:48.465Z,5.65
2022-08-26T13:24:41.973Z,5.18
2022-08-26T13:27:11.366Z,4.15
2022-08-26T13:29:38.211Z,6.85
2022-08-26T13:32:06.492Z,4.78
2022-08-26T13:34:33.464Z,7.15
2022-08-26T13:37:00.454Z,3.30
2022-08-26T13:39:27.345Z,6.47
2022-08-26T13:41:54.408Z,7.23
2022-08-26T13:44:21.756Z,8.97
2022-08-26T13:46:49.078Z,6.43
2022-08-26T13:49:15.959Z,5.40
2022-08-26T13:51:42.963Z,4.87
2022-08-26T13:54:09.794Z,7.40
2022-08-26T13:56:37.454Z,5.97
2022-08-26T13:59:05.569Z,8.20
2022-08-26T14:01:35.069Z,5.80
2022-08-26T14:04:03.035Z,6.77
2022-08-26T14:06:30.514Z,5.60
2022-08-26T14:08:57.813Z,7.67
2022-08-26T14:11:25.076Z,7.73
2022-08-26T14:13:52.368Z,7.90
2022-08-26T14:16:26.949Z,4.83
2022-08-26T14:18:54.407Z,5.70
2022-08-26T14:21:21.601Z,4.93
2022-08-26T14:23:48.635Z,6.43
2022-08-26T14:26:28.981Z,6.23
2022-08-26T14:29:00.222Z,6.77
2022-08-26T14:31:29.425Z,6.20
2022-08-26T14:34:04.195Z,6.63
2022-08-26T14:36:39.904Z,7.93
2022-08-26T14:39:13.010Z,6.20
2022-08-26T14:41:53.987Z,6.67
2022-08-26T14:44:32.826Z,7.07
2022-08-26T14:47:01.807Z,8.00
2022-08-26T14:49:31.087Z,6.27
2022-08-26T14:51:58.168Z,5.43
2022-08-26T14:54:25.089Z,4.70
2022-08-26T14:57:05.459Z,4.23
2022-08-26T14:59:50.547Z,7.50
2022-08-26T15:02:32.797Z,6.73
2022-08-26T15:05:01.373Z,6.03
2022-08-26T15:07:28.321Z,5.80
2022-08-26T15:09:55.119Z,8.03
2022-08-26T15:12:21.915Z,7.20
2022-08-26T15:14:48.724Z,5.70
2022-08-26T15:17:15.571Z,8.20
2022-08-26T15:19:42.371Z,7.87
2022-08-26T15:22:09.266Z,7.97
2022-08-26T15:24:36.537Z,3.97
2022-08-26T15:27:03.466Z,6.03
2022-08-26T15:29:30.637Z,7.50
2022-08-26T15:32:01.451Z,5.70
2022-08-26T15:34:28.376Z,7.67
2022-08-26T15:36:55.168Z,9.50
2022-08-26T15:39:21.994Z,6.90
2022-08-26T15:41:48.962Z,7.93
2022-08-26T15:44:18.190Z,6.60
2022-08-26T15:46:45.446Z,6.23
2022-08-26T15:49:17.787Z,6.43
2022-08-26T15:51:47.007Z,6.30
2022-08-26T15:54:16.751Z,6.07
2022-08-26T15:56:44.300Z,5.47
2022-08-26T15:59:11.964Z,5.67
2022-08-26T16:01:39.509Z,6.03
2022-08-26T16:04:06.435Z,6.40
2022-08-26T16:06:35.235Z,7.77
2022-08-26T16:09:02.609Z,7.60
2022-08-26T16:11:29.642Z,5.57
2022-08-26T16:13:56.554Z,8.27
2022-08-26T16:16:23.602Z,5.40
2022-08-26T16:18:50.450Z,5.63
2022-08-26T16:21:23.436Z,5.67
2022-08-26T16:23:51.004Z,4.53
2022-08-26T16:26:20.749Z,7.77
2022-08-26T16:28:48.322Z,7.23
2022-08-26T16:31:16.167Z,5.72
2022-08-26T16:33:43.133Z,5.72
2022-08-26T16:36:11.472Z,5.20
2022-08-26T16:38:39.075Z,6.60
2022-08-26T16:41:07.245Z,6.40
2022-08-26T16:43:34.781Z,6.90
2022-08-26T16:46:01.754Z,5.25
2022-08-26T16:48:28.809Z,5.78
2022-08-26T16:50:55.825Z,7.53
2022-08-26T16:53:23.483Z,4.70
2022-08-26T16:55:50.986Z,7.80
2022-08-26T16:58:18.758Z,5.57
2022-08-26T17:00:45.777Z,5.55
2022-08-26T17:03:13.256Z,8.32
2022-08-26T17:05:40.344Z,5.43
2022-08-26T17:08:07.416Z,3.83
2022-08-26T17:10:34.586Z,7.55
2022-08-26T17:13:01.546Z,5.13
2022-08-26T17:15:28.686Z,5.45
2022-08-26T17:17:56.736Z,7.32
2022-08-26T17:20:24.718Z,6.40
2022-08-26T17:22:53.554Z,5.30
2022-08-26T17:25:24.821Z,4.88
2022-08-26T17:27:52.103Z,5.85
2022-08-26T17:30:20.265Z,5.47
2022-08-26T17:32:47.400Z,5.53
2022-08-26T17:35:16.161Z,7.32
2022-08-26T17:37:43.928Z,6.30
2022-08-26T17:40:15.511Z,7.60
2022-08-26T17:42:42.912Z,5.47
2022-08-26T17:45:11.102Z,5.47
2022-08-26T17:47:38.673Z,4.80
2022-08-26T17:50:09.170Z,3.83
2022-08-26T17:52:37.558Z,4.00
2022-08-26T17:55:06.412Z,7.57
2022-08-26T17:57:33.332Z,6.50
2022-08-26T18:00:11.788Z,4.07
2022-08-26T18:02:39.195Z,7.10
2022-08-26T18:05:08.287Z,6.60
2022-08-26T18:07:43.552Z,7.90
2022-08-26T18:10:13.446Z,5.00
2022-08-26T18:12:41.865Z,8.17
2022-08-26T18:15:10.615Z,7.40
2022-08-26T18:17:39.267Z,6.03
2022-08-26T18:20:11.557Z,6.60
2022-08-26T18:22:38.533Z,7.00
2022-08-26T18:25:07.236Z,4.50
2022-08-26T18:27:36.113Z,5.83
2022-08-26T18:30:11.366Z,7.23
2022-08-26T18:32:40.641Z,8.10
2022-08-26T18:35:08.563Z,4.77
2022-08-26T18:37:35.468Z,6.07
2022-08-26T18:40:02.523Z,4.47
2022-08-26T18:42:30.936Z,5.63
2022-08-26T18:44:57.870Z,5.93
2022-08-26T18:47:24.738Z,5.03
2022-08-26T18:49:51.610Z,7.07
2022-08-26T18:52:18.512Z,5.93
2022-08-26T18:54:46.405Z,6.70
2022-08-26T18:57:13.230Z,5.50
2022-08-26T18:59:40.986Z,6.03
2022-08-26T19:02:08.559Z,5.03
2022-08-26T19:04:38.326Z,10.53
2022-08-26T19:07:06.517Z,4.90
2022-08-26T19:09:34.349Z,7.63
2022-08-26T19:12:04.110Z,5.43
2022-08-26T19:14:32.920Z,5.93
2022-08-26T19:17:00.498Z,6.17
2022-08-26T19:19:27.466Z,8.27
2022-08-26T19:21:54.826Z,5.83
2022-08-26T19:24:21.825Z,3.80
2022-08-26T19:26:57.442Z,5.67
2022-08-26T19:29:31.409Z,7.33
2022-08-26T19:31:58.738Z,7.00
2022-08-26T19:34:25.670Z,6.50
2022-08-26T19:36:54.120Z,8.10
2022-08-26T19:39:21.574Z,8.73
2022-08-26T19:41:48.561Z,5.73
2022-08-26T19:44:36.054Z,4.73
2022-08-26T19:47:03.860Z,6.10
2022-08-26T19:49:31.649Z,4.93
2022-08-26T19:51:59.015Z,6.07
2022-08-26T19:54:27.085Z,6.37
2022-08-26T19:56:54.575Z,7.63
2022-08-26T19:59:21.493Z,7.17
2022-08-26T20:02:00.372Z,9.07
2022-08-26T20:04:30.022Z,7.43
2022-08-26T20:06:58.740Z,5.67
2022-08-26T20:09:31.186Z,4.63
2022-08-26T20:11:58.513Z,9.47
2022-08-26T20:14:26.894Z,6.70
2022-08-26T20:16:54.076Z,10.17
2022-08-26T20:19:39.401Z,8.20
2022-08-26T20:22:07.885Z,6.97
2022-08-26T20:24:35.145Z,6.27
2022-08-26T20:27:07.272Z,6.57
2022-08-26T20:29:35.992Z,6.17
2022-08-26T20:32:03.706Z,6.50
2022-08-26T20:34:30.656Z,9.20
2022-08-26T20:36:57.571Z,5.37
2022-08-26T20:39:24.375Z,7.37
2022-08-26T20:41:51.345Z,7.83
2022-08-26T20:44:18.251Z,8.93
2022-08-26T20:46:45.624Z,5.93
2022-08-26T20:49:13.385Z,9.10
2022-08-26T20:51:44.004Z,8.03
2022-08-26T20:54:13.244Z,5.80
2022-08-26T20:56:40.489Z,6.53
2022-08-26T20:59:08.779Z,6.93
2022-08-26T21:01:41.945Z,9.23
2022-08-26T21:04:13.116Z,11.03
2022-08-26T21:06:42.320Z,8.07
2022-08-26T21:09:17.516Z,8.17
2022-08-26T21:11:45.050Z,7.73
2022-08-26T21:14:15.936Z,8.10
2022-08-26T21:16:45.666Z,8.13
2022-08-26T21:19:14.621Z,7.03
2022-08-26T21:21:42.095Z,8.63
2022-08-26T21:24:09.264Z,7.80
2022-08-26T21:26:36.281Z,6.10
2022-08-26T21:29:06.690Z,8.57
2022-08-26T21:31:33.623Z,6.43
2022-08-26T21:34:00.534Z,8.73
2022-08-26T21:36:27.583Z,8.33
2022-08-26T21:39:01.247Z,11.17
2022-08-26T21:41:28.477Z,7.57
2022-08-26T21:43:59.247Z,7.83
2022-08-26T21:46:29.118Z,11.83
2022-08-26T21:48:59.199Z,8.47
2022-08-26T21:51:29.707Z,8.53
2022-08-26T21:53:58.543Z,9.90
2022-08-26T21:56:29.484Z,8.73
2022-08-26T21:58:56.668Z,7.63
2022-08-26T22:01:25.926Z,9.00
2022-08-26T22:03:53.569Z,8.50
2022-08-26T22:06:25.636Z,9.83
2022-08-26T22:08:53.694Z,9.07
2022-08-26T22:11:20.684Z,9.67
2022-08-26T22:13:48.969Z,10.27
2022-08-26T22:16:16.654Z,8.57
2022-08-26T22:18:45.420Z,9.23
2022-08-26T22:21:19.375Z,9.37
2022-08-26T22:23:47.298Z,8.83
2022-08-26T22:26:25.359Z,10.10
2022-08-26T22:28:58.519Z,11.17
2022-08-26T22:31:29.083Z,7.10
2022-08-26T22:34:11.883Z,12.03
2022-08-26T22:36:43.718Z,10.00
2022-08-26T22:39:15.912Z,9.53
2022-08-26T22:41:43.719Z,10.60
2022-08-26T22:44:12.048Z,11.27
2022-08-26T22:46:40.114Z,9.60
2022-08-26T22:49:09.441Z,12.83
2022-08-26T22:51:36.402Z,8.93
2022-08-26T22:54:03.260Z,9.33
2022-08-26T22:56:30.148Z,10.53
2022-08-26T22:58:56.950Z,10.93
2022-08-26T23:01:23.935Z,9.23
2022-08-26T23:03:50.793Z,12.40
2022-08-26T23:06:17.647Z,10.77
2022-08-26T23:08:46.314Z,9.43
2022-08-26T23:11:14.894Z,8.70
2022-08-26T23:13:41.935Z,10.20
2022-08-26T23:16:10.983Z,11.93
2022-08-26T23:18:38.657Z,8.80
2022-08-26T23:21:06.004Z,9.17
2022-08-26T23:23:33.239Z,9.70
2022-08-26T23:26:04.378Z,10.17
2022-08-26T23:28:32.766Z,10.43
2022-08-26T23:31:00.144Z,9.57
2022-08-26T23:33:47.078Z,9.13
2022-08-26T23:36:17.867Z,9.63
2022-08-26T23:38:45.352Z,9.30
2022-08-26T23:41:21.718Z,10.17
2022-08-26T23:43:49.048Z,11.53
2022-08-26T23:46:16.043Z,11.43
2022-08-26T23:48:42.997Z,10.27
2022-08-26T23:51:29.225Z,13.23
2022-08-26T23:53:56.436Z,13.07
2022-08-26T23:56:23.334Z,11.87
2022-08-26T23:58:50.376Z,11.90
